Barra do Garcas, Brazil
Current Conditions -  °F | °C
As of 7:40 AM on Sunday 21 Dec 2014 (Local Time) from SBGO Reporting Station
Broken Clouds Broken Clouds  
Wind Chill: 72°   Ceiling: 7000
Heat Index: 72°   Visibility: 6mi
Dew Point: 66°   Wind: 13mph
Humidity: 83%   Direction: 330°NNW
Pressure: 30.03"   Gusts: NA
Location:  15.88°S, 52.26°W
Report Text: SBGO 211040Z 33011KT 9999 SCT012 BKN070 22/19 Q1017
Loading
Personal Weather Stations






























Interactive Weather Map New forecast layout! Learn more

10-Day Weather Forecast

Advertisements
Track Severe Weather on mobile